Temp: 16.9°C   Baro: 1010.5mb
  Wind: 6.9mph   Dir: W (279°)
  Rain: 0.8mm (0.0mm/hr)
  Solar: 186W/m2  Hum: 91%
 
Bath Spa Weather Station Historical Data
Daily Summary for June 22, 2019 Units:  Both    English   Metric
Daily Weekly Monthly Yearly Custom
  High: Low: Average:
Temperature: 75.8 °F /  24.3 °C 61.5 °F /  16.4 °C 68.5 °F /  20.3 °C
Dew Point: 65.1 °F /  18.4 °C 57.6 °F /  14.2 °C 62 °F /  16.7 °C
Humidity: 89% 68.7% 80%
Wind Speed: 8.7mph /  14km/h - 4.2mph /  6.8km/h
Wind Gust: 17mph /  27.4km/h - -
Wind- - WSW
Pressure: 30.17 in /  1021.6 hPa 30.12 in /  1019.9 hPa -
Precipitation: 0.00 in /  0 mm    
Historical Graphs
 
 
Tabular Data for June 22, 2019
Time Temperature Dew Point Pressure Wind Wind Speed Wind Gust Humidity Rainfall Rate (Hourly) solar
00:04 61.5 °F /  16.4 °C 57.6 °F /  14.2 °C 30.14in /  1020.5hPa SW 1.4mph /  2.3km/h 5mph /  8km/h 87% 0.00in /  0mm 0 W/m2
00:09 61.7 °F /  16.5 °C 57.7 °F /  14.3 °C 30.14in /  1020.5hPa SW 2.5mph /  4km/h 7mph /  11.3km/h 87% 0.00in /  0mm 0 W/m2
00:14 61.8 °F /  16.6 °C 57.8 °F /  14.3 °C 30.14in /  1020.5hPa SSW 2.1mph /  3.4km/h 7mph /  11.3km/h 87% 0.00in /  0mm 0 W/m2
00:19 62 °F /  16.7 °C 58 °F /  14.4 °C 30.14in /  1020.5hPa SSW 3.1mph /  5km/h 7mph /  11.3km/h 87% 0.00in /  0mm 0 W/m2
00:24 62.1 °F /  16.7 °C 58.1 °F /  14.5 °C 30.14in /  1020.5hPa SW 2mph /  3.2km/h 7mph /  11.3km/h 87% 0.00in /  0mm 0 W/m2
00:29 62.1 °F /  16.7 °C 58.1 °F /  14.5 °C 30.14in /  1020.5hPa SSW 2.3mph /  3.7km/h 6mph /  9.7km/h 87% 0.00in /  0mm 0 W/m2
00:34 62.2 °F /  16.8 °C 58.3 °F /  14.6 °C 30.13in /  1020.2hPa SW 0.8mph /  1.3km/h 6mph /  9.7km/h 87% 0.00in /  0mm 0 W/m2
00:39 62.3 °F /  16.8 °C 58.1 °F /  14.5 °C 30.13in /  1020.2hPa SW 4.9mph /  7.9km/h 10mph /  16.1km/h 86.3% 0.00in /  0mm 0 W/m2
00:44 62.4 °F /  16.9 °C 58.1 °F /  14.5 °C 30.13in /  1020.2hPa SW 4.1mph /  6.6km/h 9mph /  14.5km/h 86% 0.00in /  0mm 0 W/m2
00:49 62.6 °F /  17 °C 58.2 °F /  14.6 °C 30.14in /  1020.5hPa SW 4.2mph /  6.8km/h 10mph /  16.1km/h 85.7% 0.00in /  0mm 0 W/m2
00:54 62.6 °F /  17 °C 58.1 °F /  14.5 °C 30.14in /  1020.5hPa SW 4.6mph /  7.4km/h 10mph /  16.1km/h 85% 0.00in /  0mm 0 W/m2
00:59 62.7 °F /  17.1 °C 58.2 °F /  14.6 °C 30.14in /  1020.5hPa SW 4.3mph /  6.9km/h 11mph /  17.7km/h 85% 0.00in /  0mm 0 W/m2
01:04 62.8 °F /  17.1 °C 58.3 °F /  14.6 °C 30.14in /  1020.5hPa SW 2.2mph /  3.5km/h 8mph /  12.9km/h 85% 0.00in /  0mm 0 W/m2
01:09 62.7 °F /  17.1 °C 58.2 °F /  14.6 °C 30.14in /  1020.5hPa SW 3.1mph /  5km/h 9mph /  14.5km/h 85% 0.00in /  0mm 0 W/m2
01:14 62.6 °F /  17 °C 58.1 °F /  14.5 °C 30.14in /  1020.5hPa WSW 5mph /  8km/h 12mph /  19.3km/h 85% 0.00in /  0mm 0 W/m2
01:19 62.6 °F /  17 °C 58.1 °F /  14.5 °C 30.14in /  1020.5hPa SW 3.7mph /  6km/h 9mph /  14.5km/h 85% 0.00in /  0mm 0 W/m2
01:24 62.6 °F /  17 °C 58.1 °F /  14.5 °C 30.13in /  1020.2hPa SW 5.6mph /  9km/h 10mph /  16.1km/h 85% 0.00in /  0mm 0 W/m2
01:29 62.6 °F /  17 °C 58.1 °F /  14.5 °C 30.13in /  1020.2hPa SW 3.3mph /  5.3km/h 7mph /  11.3km/h 85% 0.00in /  0mm 0 W/m2
01:34 62.6 °F /  17 °C 58.1 °F /  14.5 °C 30.13in /  1020.2hPa SW 3.7mph /  6km/h 9mph /  14.5km/h 85% 0.00in /  0mm 0 W/m2
01:39 62.6 °F /  17 °C 58.3 °F /  14.6 °C 30.13in /  1020.2hPa SW 3.2mph /  5.1km/h 9mph /  14.5km/h 85.8% 0.00in /  0mm 0 W/m2
01:44 62.6 °F /  17 °C 58.3 °F /  14.6 °C 30.13in /  1020.2hPa WSW 5.9mph /  9.5km/h 11mph /  17.7km/h 86% 0.00in /  0mm 0 W/m2
01:49 62.6 °F /  17 °C 58.3 °F /  14.6 °C 30.13in /  1020.2hPa SW 5.1mph /  8.2km/h 11mph /  17.7km/h 86% 0.00in /  0mm 0 W/m2
01:54 62.6 °F /  17 °C 58.3 °F /  14.6 °C 30.13in /  1020.2hPa SW 4.1mph /  6.6km/h 9mph /  14.5km/h 86% 0.00in /  0mm 0 W/m2
01:59 62.6 °F /  17 °C 58.3 °F /  14.6 °C 30.13in /  1020.2hPa SW 2.5mph /  4km/h 9mph /  14.5km/h 86% 0.00in /  0mm 0 W/m2
02:04 62.6 °F /  17 °C 58.3 °F /  14.6 °C 30.12in /  1019.9hPa SW 4.6mph /  7.4km/h 10mph /  16.1km/h 86% 0.00in /  0mm 0 W/m2
02:09 62.7 °F /  17.1 °C 58.4 °F /  14.7 °C 30.12in /  1019.9hPa SW 2.8mph /  4.5km/h 7mph /  11.3km/h 86% 0.00in /  0mm 0 W/m2
02:14 62.8 °F /  17.1 °C 58.5 °F /  14.7 °C 30.12in /  1019.9hPa WSW 3.4mph /  5.5km/h 7mph /  11.3km/h 86% 0.00in /  0mm 0 W/m2
02:19 62.8 °F /  17.1 °C 58.5 °F /  14.7 °C 30.12in /  1019.9hPa WSW 2.4mph /  3.9km/h 7mph /  11.3km/h 86% 0.00in /  0mm 0 W/m2
02:24 63 °F /  17.2 °C 58.6 °F /  14.8 °C 30.12in /  1019.9hPa WSW 3.5mph /  5.6km/h 7mph /  11.3km/h 86% 0.00in /  0mm 0 W/m2
02:29 63 °F /  17.2 °C 58.6 °F /  14.8 °C 30.12in /  1019.9hPa SW 4.8mph /  7.7km/h 9mph /  14.5km/h 86% 0.00in /  0mm 0 W/m2
02:34 63 °F /  17.2 °C 58.6 °F /  14.8 °C 30.12in /  1019.9hPa SW 5.8mph /  9.3km/h 13mph /  20.9km/h 86% 0.00in /  0mm 0 W/m2
02:39 63 °F /  17.2 °C 58.6 °F /  14.8 °C 30.12in /  1019.9hPa SW 3.5mph /  5.6km/h 9mph /  14.5km/h 86% 0.00in /  0mm 0 W/m2
02:44 63 °F /  17.2 °C 58.6 °F /  14.8 °C 30.13in /  1020.2hPa SW 3.9mph /  6.3km/h 13mph /  20.9km/h 86% 0.00in /  0mm 0 W/m2
02:49 63 °F /  17.2 °C 58.6 °F /  14.8 °C 30.13in /  1020.2hPa SW 7mph /  11.3km/h 13mph /  20.9km/h 86% 0.00in /  0mm 0 W/m2
02:54 63 °F /  17.2 °C 58.6 °F /  14.8 °C 30.13in /  1020.2hPa SW 5.9mph /  9.5km/h 13mph /  20.9km/h 86% 0.00in /  0mm 0 W/m2
02:59 63 °F /  17.2 °C 58.6 °F /  14.8 °C 30.13in /  1020.2hPa SW 5.9mph /  9.5km/h 13mph /  20.9km/h 86% 0.00in /  0mm 0 W/m2
03:04 63 °F /  17.2 °C 58.6 °F /  14.8 °C 30.13in /  1020.2hPa SW 3.7mph /  6km/h 13mph /  20.9km/h 86% 0.00in /  0mm 0 W/m2
03:09 63 °F /  17.2 °C 58.6 °F /  14.8 °C 30.13in /  1020.2hPa SW 4.1mph /  6.6km/h 9mph /  14.5km/h 86% 0.00in /  0mm 0 W/m2
03:14 63 °F /  17.2 °C 58.6 °F /  14.8 °C 30.13in /  1020.2hPa SW 4.7mph /  7.6km/h 10mph /  16.1km/h 86% 0.00in /  0mm 0 W/m2
03:19 63 °F /  17.2 °C 58.6 °F /  14.8 °C 30.13in /  1020.2hPa WSW 5.2mph /  8.4km/h 11mph /  17.7km/h 86% 0.00in /  0mm 0 W/m2
03:24 63 °F /  17.2 °C 58.6 °F /  14.8 °C 30.13in /  1020.2hPa WSW 5.4mph /  8.7km/h 10mph /  16.1km/h 86% 0.00in /  0mm 0 W/m2
03:29 63 °F /  17.2 °C 58.7 °F /  14.8 °C 30.13in /  1020.2hPa SW 4.2mph /  6.8km/h 9mph /  14.5km/h 86% 0.00in /  0mm 0 W/m2
03:34 63 °F /  17.2 °C 58.6 °F /  14.8 °C 30.13in /  1020.2hPa WSW 6.2mph /  10km/h 10mph /  16.1km/h 86% 0.00in /  0mm 0 W/m2
03:39 63.1 °F /  17.3 °C 58.7 °F /  14.8 °C 30.13in /  1020.2hPa WSW 3.5mph /  5.6km/h 10mph /  16.1km/h 86% 0.00in /  0mm 0 W/m2
03:44 63.1 °F /  17.3 °C 58.8 °F /  14.9 °C 30.13in /  1020.2hPa WSW 5mph /  8km/h 12mph /  19.3km/h 86% 0.00in /  0mm 0 W/m2
03:49 63.1 °F /  17.3 °C 58.8 °F /  14.9 °C 30.13in /  1020.2hPa WSW 5mph /  8km/h 9mph /  14.5km/h 86% 0.00in /  0mm 0 W/m2
03:54 63.1 °F /  17.3 °C 58.8 °F /  14.9 °C 30.13in /  1020.2hPa WSW 2.8mph /  4.5km/h 9mph /  14.5km/h 86% 0.00in /  0mm 0 W/m2
03:59 63.1 °F /  17.3 °C 58.8 °F /  14.9 °C 30.13in /  1020.2hPa West 3mph /  4.8km/h 8mph /  12.9km/h 86% 0.00in /  0mm 0 W/m2
04:04 63.1 °F /  17.3 °C 58.8 °F /  14.9 °C 30.13in /  1020.2hPa WSW 3.6mph /  5.8km/h 7mph /  11.3km/h 86% 0.00in /  0mm 0 W/m2
04:09 63.1 °F /  17.3 °C 58.8 °F /  14.9 °C 30.13in /  1020.2hPa WSW 1.7mph /  2.7km/h 7mph /  11.3km/h 86% 0.00in /  0mm 0 W/m2
04:14 63.1 °F /  17.3 °C 58.8 °F /  14.9 °C 30.13in /  1020.2hPa WSW 6.3mph /  10.1km/h 11mph /  17.7km/h 86.1% 0.00in /  0mm 0 W/m2
04:19 63.1 °F /  17.3 °C 59.1 °F /  15.1 °C 30.13in /  1020.2hPa WSW 4.7mph /  7.6km/h 13mph /  20.9km/h 86.8% 0.00in /  0mm 0 W/m2
04:24 63.1 °F /  17.3 °C 59.2 °F /  15.1 °C 30.13in /  1020.2hPa West 2.3mph /  3.7km/h 9mph /  14.5km/h 87% 0.00in /  0mm 0 W/m2
04:29 63.1 °F /  17.3 °C 59.2 °F /  15.1 °C 30.13in /  1020.2hPa West 2.7mph /  4.3km/h 6mph /  9.7km/h 87% 0.00in /  0mm 0 W/m2
04:34 63.1 °F /  17.3 °C 59.2 °F /  15.1 °C 30.13in /  1020.2hPa WSW 2.4mph /  3.9km/h 7mph /  11.3km/h 87% 0.00in /  0mm 0 W/m2
04:39 63.1 °F /  17.3 °C 59.2 °F /  15.1 °C 30.13in /  1020.2hPa West 5.4mph /  8.7km/h 10mph /  16.1km/h 87% 0.00in /  0mm 0 W/m2
04:44 63.1 °F /  17.3 °C 59.2 °F /  15.1 °C 30.13in /  1020.2hPa WSW 3.4mph /  5.5km/h 10mph /  16.1km/h 87% 0.00in /  0mm 0 W/m2
04:49 63.1 °F /  17.3 °C 59.2 °F /  15.1 °C 30.13in /  1020.2hPa West 3.9mph /  6.3km/h 12mph /  19.3km/h 87% 0.00in /  0mm 0 W/m2
04:54 63.1 °F /  17.3 °C 59.1 °F /  15.1 °C 30.13in /  1020.2hPa West 4.4mph /  7.1km/h 8mph /  12.9km/h 87.1% 0.00in /  0mm 0 W/m2
04:59 63 °F /  17.2 °C 59.4 °F /  15.2 °C 30.13in /  1020.2hPa WSW 5.4mph /  8.7km/h 10mph /  16.1km/h 88% 0.00in /  0mm 0 W/m2
05:04 63 °F /  17.2 °C 59.4 °F /  15.2 °C 30.13in /  1020.2hPa WSW 2.7mph /  4.3km/h 10mph /  16.1km/h 88% 0.00in /  0mm 0 W/m2
05:09 63 °F /  17.2 °C 59.4 °F /  15.2 °C 30.13in /  1020.2hPa West 3.4mph /  5.5km/h 12mph /  19.3km/h 88% 0.00in /  0mm 0 W/m2
05:14 63 °F /  17.2 °C 59.4 °F /  15.2 °C 30.13in /  1020.2hPa WSW 4.2mph /  6.8km/h 12mph /  19.3km/h 88% 0.00in /  0mm 0 W/m2
05:19 63 °F /  17.2 °C 59.5 °F /  15.3 °C 30.12in /  1019.9hPa WSW 2.5mph /  4km/h 12mph /  19.3km/h 88.2% 0.00in /  0mm 0 W/m2
05:24 63.1 °F /  17.3 °C 59.9 °F /  15.5 °C 30.12in /  1019.9hPa WSW 7.4mph /  11.9km/h 13mph /  20.9km/h 89% 0.00in /  0mm 0 W/m2
05:29 63.1 °F /  17.3 °C 59.9 °F /  15.5 °C 30.12in /  1019.9hPa SW 5.7mph /  9.2km/h 13mph /  20.9km/h 89% 0.00in /  0mm 5 W/m2
05:34 63.1 °F /  17.3 °C 59.9 °F /  15.5 °C 30.13in /  1020.2hPa WSW 5.4mph /  8.7km/h 12mph /  19.3km/h 89% 0.00in /  0mm 7 W/m2
05:39 63.1 °F /  17.3 °C 59.9 °F /  15.5 °C 30.13in /  1020.2hPa WSW 5.2mph /  8.4km/h 11mph /  17.7km/h 89% 0.00in /  0mm 7 W/m2
05:44 63.3 °F /  17.4 °C 60.1 °F /  15.6 °C 30.13in /  1020.2hPa WSW 7mph /  11.3km/h 12mph /  19.3km/h 89% 0.00in /  0mm 9 W/m2
05:49 63.3 °F /  17.4 °C 60.1 °F /  15.6 °C 30.13in /  1020.2hPa WSW 6.2mph /  10km/h 13mph /  20.9km/h 89% 0.00in /  0mm 9 W/m2
05:54 63.3 °F /  17.4 °C 60.1 °F /  15.6 °C 30.13in /  1020.2hPa SW 7.4mph /  11.9km/h 15mph /  24.1km/h 89% 0.00in /  0mm 11 W/m2
05:59 63.3 °F /  17.4 °C 60.1 °F /  15.6 °C 30.14in /  1020.5hPa SW 5.3mph /  8.5km/h 15mph /  24.1km/h 89% 0.00in /  0mm 11 W/m2
06:04 63.3 °F /  17.4 °C 60.1 °F /  15.6 °C 30.14in /  1020.5hPa SW 4.9mph /  7.9km/h 11mph /  17.7km/h 89% 0.00in /  0mm 16 W/m2
06:09 63.4 °F /  17.4 °C 60.2 °F /  15.7 °C 30.14in /  1020.5hPa WSW 4mph /  6.4km/h 9mph /  14.5km/h 89% 0.00in /  0mm 18 W/m2
06:14 63.5 °F /  17.5 °C 60.3 °F /  15.7 °C 30.14in /  1020.5hPa WSW 5.2mph /  8.4km/h 10mph /  16.1km/h 89% 0.00in /  0mm 18 W/m2
06:19 63.5 °F /  17.5 °C 60.3 °F /  15.7 °C 30.14in /  1020.5hPa SW 4mph /  6.4km/h 10mph /  16.1km/h 89% 0.00in /  0mm 21 W/m2
06:24 63.5 °F /  17.5 °C 60.3 °F /  15.7 °C 30.14in /  1020.5hPa SW 4mph /  6.4km/h 10mph /  16.1km/h 89% 0.00in /  0mm 25 W/m2
06:29 63.7 °F /  17.6 °C 60.4 °F /  15.8 °C 30.14in /  1020.5hPa SW 6.3mph /  10.1km/h 13mph /  20.9km/h 89% 0.00in /  0mm 28 W/m2
06:34 63.8 °F /  17.7 °C 60.5 °F /  15.8 °C 30.14in /  1020.5hPa SW 5.9mph /  9.5km/h 13mph /  20.9km/h 89% 0.00in /  0mm 30 W/m2
06:39 63.9 °F /  17.7 °C 60.6 °F /  15.9 °C 30.14in /  1020.5hPa SW 6mph /  9.7km/h 10mph /  16.1km/h 89% 0.00in /  0mm 30 W/m2
06:44 64 °F /  17.8 °C 60.8 °F /  16 °C 30.14in /  1020.5hPa SW 4.1mph /  6.6km/h 9mph /  14.5km/h 89% 0.00in /  0mm 25 W/m2
06:49 64 °F /  17.8 °C 60.8 °F /  16 °C 30.14in /  1020.5hPa SW 2.7mph /  4.3km/h 10mph /  16.1km/h 89% 0.00in /  0mm 25 W/m2
06:54 64 °F /  17.8 °C 60.8 °F /  16 °C 30.14in /  1020.5hPa WSW 3.7mph /  6km/h 9mph /  14.5km/h 89% 0.00in /  0mm 26 W/m2
06:59 64.1 °F /  17.8 °C 60.9 °F /  16.1 °C 30.14in /  1020.5hPa SW 1.6mph /  2.6km/h 6mph /  9.7km/h 89% 0.00in /  0mm 32 W/m2
07:04 64.2 °F /  17.9 °C 61 °F /  16.1 °C 30.15in /  1020.9hPa WSW 2.5mph /  4km/h 8mph /  12.9km/h 89% 0.00in /  0mm 37 W/m2
07:09 64.2 °F /  17.9 °C 61 °F /  16.1 °C 30.15in /  1020.9hPa WSW 0.7mph /  1.1km/h 4mph /  6.4km/h 89% 0.00in /  0mm 35 W/m2
07:14 64.3 °F /  17.9 °C 61.1 °F /  16.2 °C 30.15in /  1020.9hPa WSW 3.6mph /  5.8km/h 7mph /  11.3km/h 89% 0.00in /  0mm 37 W/m2
07:19 64.3 °F /  17.9 °C 61.1 °F /  16.2 °C 30.15in /  1020.9hPa WSW 3.7mph /  6km/h 9mph /  14.5km/h 89% 0.00in /  0mm 42 W/m2
07:24 64.4 °F /  18 °C 61.2 °F /  16.2 °C 30.15in /  1020.9hPa SW 3.5mph /  5.6km/h 9mph /  14.5km/h 89% 0.00in /  0mm 46 W/m2
07:29 64.4 °F /  18 °C 61.1 °F /  16.2 °C 30.15in /  1020.9hPa SW 4.6mph /  7.4km/h 11mph /  17.7km/h 88.8% 0.00in /  0mm 49 W/m2
07:34 64.6 °F /  18.1 °C 61 °F /  16.1 °C 30.15in /  1020.9hPa SW 2.8mph /  4.5km/h 11mph /  17.7km/h 88% 0.00in /  0mm 67 W/m2
07:39 64.8 °F /  18.2 °C 61.2 °F /  16.2 °C 30.15in /  1020.9hPa SW 5.5mph /  8.9km/h 15mph /  24.1km/h 88% 0.00in /  0mm 70 W/m2
07:44 64.9 °F /  18.3 °C 61.3 °F /  16.3 °C 30.15in /  1020.9hPa SW 6mph /  9.7km/h 15mph /  24.1km/h 88% 0.00in /  0mm 79 W/m2
07:49 65.1 °F /  18.4 °C 61.5 °F /  16.4 °C 30.15in /  1020.9hPa SW 5.2mph /  8.4km/h 11mph /  17.7km/h 87.9% 0.00in /  0mm 81 W/m2
07:54 65.3 °F /  18.5 °C 61.3 °F /  16.3 °C 30.15in /  1020.9hPa SW 5.6mph /  9km/h 11mph /  17.7km/h 87% 0.00in /  0mm 84 W/m2
07:59 65.4 °F /  18.6 °C 61.4 °F /  16.3 °C 30.15in /  1020.9hPa SW 5.2mph /  8.4km/h 11mph /  17.7km/h 87% 0.00in /  0mm 90 W/m2
08:04 65.6 °F /  18.7 °C 61.6 °F /  16.4 °C 30.15in /  1020.9hPa SW 5mph /  8km/h 9mph /  14.5km/h 87% 0.00in /  0mm 91 W/m2
08:09 65.7 °F /  18.7 °C 61.8 °F /  16.6 °C 30.16in /  1021.2hPa SW 5.4mph /  8.7km/h 11mph /  17.7km/h 87% 0.00in /  0mm 91 W/m2
08:14 65.8 °F /  18.8 °C 61.6 °F /  16.4 °C 30.16in /  1021.2hPa SW 5.6mph /  9km/h 13mph /  20.9km/h 86.1% 0.00in /  0mm 102 W/m2
08:19 65.9 °F /  18.8 °C 61.6 °F /  16.4 °C 30.16in /  1021.2hPa SW 4.2mph /  6.8km/h 13mph /  20.9km/h 86% 0.00in /  0mm 128 W/m2
08:24 66 °F /  18.9 °C 61.7 °F /  16.5 °C 30.16in /  1021.2hPa SW 3.9mph /  6.3km/h 9mph /  14.5km/h 86% 0.00in /  0mm 135 W/m2
08:29 66.2 °F /  19 °C 61.9 °F /  16.6 °C 30.16in /  1021.2hPa SW 3.3mph /  5.3km/h 9mph /  14.5km/h 86% 0.00in /  0mm 139 W/m2
08:34 66.3 °F /  19.1 °C 62 °F /  16.7 °C 30.16in /  1021.2hPa SW 4.8mph /  7.7km/h 10mph /  16.1km/h 86% 0.00in /  0mm 137 W/m2
08:39 66.5 °F /  19.2 °C 62.1 °F /  16.7 °C 30.16in /  1021.2hPa SW 3.4mph /  5.5km/h 8mph /  12.9km/h 85.8% 0.00in /  0mm 146 W/m2
08:44 66.6 °F /  19.2 °C 61.9 °F /  16.6 °C 30.16in /  1021.2hPa SW 2.6mph /  4.2km/h 6mph /  9.7km/h 85% 0.00in /  0mm 146 W/m2
08:49 66.7 °F /  19.3 °C 62.1 °F /  16.7 °C 30.16in /  1021.2hPa SW 3.1mph /  5km/h 6mph /  9.7km/h 85% 0.00in /  0mm 149 W/m2
08:54 66.7 °F /  19.3 °C 62.1 °F /  16.7 °C 30.16in /  1021.2hPa SSW 3.6mph /  5.8km/h 9mph /  14.5km/h 85% 0.00in /  0mm 162 W/m2
08:59 66.9 °F /  19.4 °C 62.2 °F /  16.8 °C 30.16in /  1021.2hPa SSW 3.2mph /  5.1km/h 7mph /  11.3km/h 85% 0.00in /  0mm 172 W/m2
09:04 67 °F /  19.4 °C 62.3 °F /  16.8 °C 30.16in /  1021.2hPa SW 4.6mph /  7.4km/h 8mph /  12.9km/h 84.8% 0.00in /  0mm 204 W/m2
09:09 67.1 °F /  19.5 °C 62.1 °F /  16.7 °C 30.16in /  1021.2hPa SW 4.8mph /  7.7km/h 8mph /  12.9km/h 84% 0.00in /  0mm 236 W/m2
09:14 67.5 °F /  19.7 °C 62.4 °F /  16.9 °C 30.16in /  1021.2hPa SW 4.1mph /  6.6km/h 9mph /  14.5km/h 84% 0.00in /  0mm 230 W/m2
09:19 67.8 °F /  19.9 °C 62.6 °F /  17 °C 30.16in /  1021.2hPa SW 6.9mph /  11.1km/h 12mph /  19.3km/h 83.6% 0.00in /  0mm 230 W/m2
09:24 67.8 °F /  19.9 °C 62.4 °F /  16.9 °C 30.16in /  1021.2hPa SW 6.3mph /  10.1km/h 12mph /  19.3km/h 83% 0.00in /  0mm 209 W/m2
09:29 68.1 °F /  20.1 °C 62.7 °F /  17.1 °C 30.16in /  1021.2hPa SW 4.7mph /  7.6km/h 10mph /  16.1km/h 82.9% 0.00in /  0mm 206 W/m2
09:34 68.3 °F /  20.2 °C 62.5 °F /  16.9 °C 30.16in /  1021.2hPa SW 5.9mph /  9.5km/h 12mph /  19.3km/h 82% 0.00in /  0mm 206 W/m2
09:39 68.4 °F /  20.2 °C 62.7 °F /  17.1 °C 30.16in /  1021.2hPa SW 4.6mph /  7.4km/h 10mph /  16.1km/h 82% 0.00in /  0mm 197 W/m2
09:44 68.5 °F /  20.3 °C 62.5 °F /  16.9 °C 30.16in /  1021.2hPa SW 5.2mph /  8.4km/h 10mph /  16.1km/h 81.3% 0.00in /  0mm 186 W/m2
09:49 68.7 °F /  20.4 °C 62.6 °F /  17 °C 30.16in /  1021.2hPa SW 6.5mph /  10.5km/h 10mph /  16.1km/h 81% 0.00in /  0mm 186 W/m2
09:54 68.7 °F /  20.4 °C 62.6 °F /  17 °C 30.16in /  1021.2hPa SW 6.8mph /  10.9km/h 11mph /  17.7km/h 81% 0.00in /  0mm 193 W/m2
09:59 68.7 °F /  20.4 °C 62.6 °F /  17 °C 30.16in /  1021.2hPa WSW 4.6mph /  7.4km/h 11mph /  17.7km/h 81% 0.00in /  0mm 246 W/m2
10:04 69 °F /  20.6 °C 62.9 °F /  17.2 °C 30.16in /  1021.2hPa WSW 6mph /  9.7km/h 12mph /  19.3km/h 81% 0.00in /  0mm 260 W/m2
10:09 69.2 °F /  20.7 °C 63 °F /  17.2 °C 30.16in /  1021.2hPa SW 7.7mph /  12.4km/h 14mph /  22.5km/h 80.9% 0.00in /  0mm 279 W/m2
10:14 69.4 °F /  20.8 °C 62.9 °F /  17.2 °C 30.16in /  1021.2hPa WSW 5.3mph /  8.5km/h 9mph /  14.5km/h 80% 0.00in /  0mm 301 W/m2
10:19 69.7 °F /  20.9 °C 63.2 °F /  17.3 °C 30.16in /  1021.2hPa WSW 5.4mph /  8.7km/h 10mph /  16.1km/h 79.8% 0.00in /  0mm 355 W/m2
10:24 70.2 °F /  21.2 °C 63.4 °F /  17.4 °C 30.16in /  1021.2hPa WSW 5.3mph /  8.5km/h 10mph /  16.1km/h 79.1% 0.00in /  0mm 355 W/m2
10:29 70.4 °F /  21.3 °C 63.3 °F /  17.4 °C 30.16in /  1021.2hPa WSW 4mph /  6.4km/h 9mph /  14.5km/h 78.1% 0.00in /  0mm 330 W/m2
10:34 70.6 °F /  21.4 °C 63.2 °F /  17.3 °C 30.16in /  1021.2hPa SW 7mph /  11.3km/h 11mph /  17.7km/h 77.6% 0.00in /  0mm 292 W/m2
10:39 70.5 °F /  21.4 °C 63.2 °F /  17.3 °C 30.16in /  1021.2hPa West 6.8mph /  10.9km/h 14mph /  22.5km/h 77.7% 0.00in /  0mm 265 W/m2
10:44 70.5 °F /  21.4 °C 63.1 °F /  17.3 °C 30.16in /  1021.2hPa WSW 7.5mph /  12.1km/h 14mph /  22.5km/h 77.3% 0.00in /  0mm 346 W/m2
10:49 70.5 °F /  21.4 °C 63 °F /  17.2 °C 30.16in /  1021.2hPa WSW 8.3mph /  13.4km/h 15mph /  24.1km/h 77% 0.00in /  0mm 334 W/m2
10:54 70.9 °F /  21.6 °C 63.3 °F /  17.4 °C 30.16in /  1021.2hPa West 6.1mph /  9.8km/h 15mph /  24.1km/h 77% 0.00in /  0mm 457 W/m2
10:59 71.3 °F /  21.8 °C 63.4 °F /  17.4 °C 30.16in /  1021.2hPa West 6.7mph /  10.8km/h 12mph /  19.3km/h 76.1% 0.00in /  0mm 452 W/m2
11:04 71.2 °F /  21.8 °C 63.1 °F /  17.3 °C 30.17in /  1021.6hPa West 8.7mph /  14km/h 17mph /  27.4km/h 75.5% 0.00in /  0mm 336 W/m2
11:09 71.2 °F /  21.8 °C 63.2 °F /  17.3 °C 30.17in /  1021.6hPa West 7.7mph /  12.4km/h 14mph /  22.5km/h 75.8% 0.00in /  0mm 424 W/m2
11:14 71.2 °F /  21.8 °C 63.2 °F /  17.3 °C 30.17in /  1021.6hPa WSW 7.1mph /  11.4km/h 16mph /  25.7km/h 75.5% 0.00in /  0mm 330 W/m2
11:19 71.5 °F /  21.9 °C 63.5 °F /  17.5 °C 30.17in /  1021.6hPa West 5.8mph /  9.3km/h 10mph /  16.1km/h 75.9% 0.00in /  0mm 272 W/m2
11:24 71.4 °F /  21.9 °C 63.1 °F /  17.3 °C 30.17in /  1021.6hPa WSW 8.3mph /  13.4km/h 13mph /  20.9km/h 75% 0.00in /  0mm 367 W/m2
11:29 71.5 °F /  21.9 °C 63.2 °F /  17.3 °C 30.17in /  1021.6hPa WSW 5.9mph /  9.5km/h 10mph /  16.1km/h 75% 0.00in /  0mm 439 W/m2
11:34 72 °F /  22.2 °C 63.7 °F /  17.6 °C 30.17in /  1021.6hPa WSW 5.8mph /  9.3km/h 11mph /  17.7km/h 74.9% 0.00in /  0mm 432 W/m2
11:39 72.1 °F /  22.3 °C 63.3 °F /  17.4 °C 30.17in /  1021.6hPa WSW 7.2mph /  11.6km/h 13mph /  20.9km/h 74% 0.00in /  0mm 540 W/m2
11:44 72.1 °F /  22.3 °C 63.3 °F /  17.4 °C 30.17in /  1021.6hPa WSW 6.5mph /  10.5km/h 11mph /  17.7km/h 74% 0.00in /  0mm 485 W/m2
11:49 72.2 °F /  22.3 °C 63.4 °F /  17.4 °C 30.17in /  1021.6hPa West 6mph /  9.7km/h 11mph /  17.7km/h 74% 0.00in /  0mm 403 W/m2
11:54 72.4 °F /  22.4 °C 63.6 °F /  17.6 °C 30.17in /  1021.6hPa West 5.2mph /  8.4km/h 9mph /  14.5km/h 74% 0.00in /  0mm 283 W/m2
11:59 72.2 °F /  22.3 °C 63.5 °F /  17.5 °C 30.17in /  1021.6hPa West 6.6mph /  10.6km/h 11mph /  17.7km/h 74.2% 0.00in /  0mm 258 W/m2
12:04 72.4 °F /  22.4 °C 63.8 °F /  17.7 °C 30.17in /  1021.6hPa West 3.7mph /  6km/h 11mph /  17.7km/h 74.7% 0.00in /  0mm 257 W/m2
12:09 72.5 °F /  22.5 °C 63.7 °F /  17.6 °C 30.17in /  1021.6hPa WSW 5.8mph /  9.3km/h 11mph /  17.7km/h 74% 0.00in /  0mm 388 W/m2
12:14 72.5 °F /  22.5 °C 63.6 °F /  17.6 °C 30.17in /  1021.6hPa WSW 8.2mph /  13.2km/h 14mph /  22.5km/h 73.7% 0.00in /  0mm 399 W/m2
12:19 72.6 °F /  22.6 °C 63.5 °F /  17.5 °C 30.17in /  1021.6hPa West 5.1mph /  8.2km/h 14mph /  22.5km/h 73.3% 0.00in /  0mm 367 W/m2
12:24 72.9 °F /  22.7 °C 64 °F /  17.8 °C 30.17in /  1021.6hPa West 4.5mph /  7.2km/h 10mph /  16.1km/h 74% 0.00in /  0mm 392 W/m2
12:29 72.9 °F /  22.7 °C 64 °F /  17.8 °C 30.17in /  1021.6hPa West 6.4mph /  10.3km/h 13mph /  20.9km/h 73.8% 0.00in /  0mm 489 W/m2
12:34 73 °F /  22.8 °C 64.1 °F /  17.8 °C 30.17in /  1021.6hPa West 6.9mph /  11.1km/h 12mph /  19.3km/h 74.1% 0.00in /  0mm 408 W/m2
12:39 72.6 °F /  22.6 °C 64.2 °F /  17.9 °C 30.17in /  1021.6hPa WNW 8mph /  12.9km/h 15mph /  24.1km/h 75% 0.00in /  0mm 274 W/m2
12:44 72.3 °F /  22.4 °C 64.2 °F /  17.9 °C 30.17in /  1021.6hPa West 5.8mph /  9.3km/h 11mph /  17.7km/h 75.7% 0.00in /  0mm 459 W/m2
12:49 72.7 °F /  22.6 °C 64.5 °F /  18.1 °C 30.17in /  1021.6hPa West 5mph /  8km/h 10mph /  16.1km/h 75.5% 0.00in /  0mm 459 W/m2
12:54 72.9 °F /  22.7 °C 64 °F /  17.8 °C 30.17in /  1021.6hPa WSW 5.7mph /  9.2km/h 10mph /  16.1km/h 73.9% 0.00in /  0mm 388 W/m2
12:59 72.9 °F /  22.7 °C 63.8 °F /  17.7 °C 30.17in /  1021.6hPa WSW 5.4mph /  8.7km/h 10mph /  16.1km/h 73.3% 0.00in /  0mm 387 W/m2
13:04 73 °F /  22.8 °C 63.8 °F /  17.7 °C 30.17in /  1021.6hPa WSW 6.6mph /  10.6km/h 11mph /  17.7km/h 73% 0.00in /  0mm 385 W/m2
13:09 72.9 °F /  22.7 °C 63.3 °F /  17.4 °C 30.17in /  1021.6hPa WSW 8.3mph /  13.4km/h 13mph /  20.9km/h 71.8% 0.00in /  0mm 364 W/m2
13:14 73 °F /  22.8 °C 63.5 °F /  17.5 °C 30.17in /  1021.6hPa West 4.6mph /  7.4km/h 10mph /  16.1km/h 71.8% 0.00in /  0mm 390 W/m2
13:19 73.3 °F /  22.9 °C 63.6 °F /  17.6 °C 30.17in /  1021.6hPa WNW 7.5mph /  12.1km/h 14mph /  22.5km/h 71.5% 0.00in /  0mm 394 W/m2
13:24 73.1 °F /  22.8 °C 63.6 °F /  17.6 °C 30.17in /  1021.6hPa West 4.6mph /  7.4km/h 13mph /  20.9km/h 72% 0.00in /  0mm 434 W/m2
13:29 73.7 °F /  23.2 °C 64.1 °F /  17.8 °C 30.17in /  1021.6hPa West 5.3mph /  8.5km/h 10mph /  16.1km/h 72% 0.00in /  0mm 417 W/m2
13:34 73.8 °F /  23.2 °C 64.1 °F /  17.8 °C 30.17in /  1021.6hPa West 5.5mph /  8.9km/h 11mph /  17.7km/h 71.9% 0.00in /  0mm 408 W/m2
13:39 73.6 °F /  23.1 °C 63.6 °F /  17.6 °C 30.17in /  1021.6hPa West 6.7mph /  10.8km/h 12mph /  19.3km/h 71% 0.00in /  0mm 350 W/m2
13:44 73.4 °F /  23 °C 63.7 °F /  17.6 °C 30.17in /  1021.6hPa West 5.6mph /  9km/h 10mph /  16.1km/h 71.5% 0.00in /  0mm 329 W/m2
13:49 73.5 °F /  23.1 °C 63.6 °F /  17.6 °C 30.17in /  1021.6hPa WSW 6.6mph /  10.6km/h 11mph /  17.7km/h 71% 0.00in /  0mm 380 W/m2
13:54 73.8 °F /  23.2 °C 63.7 °F /  17.6 °C 30.17in /  1021.6hPa WSW 6.7mph /  10.8km/h 12mph /  19.3km/h 71% 0.00in /  0mm 367 W/m2
13:59 73.8 °F /  23.2 °C 63.7 °F /  17.6 °C 30.16in /  1021.2hPa WSW 5.7mph /  9.2km/h 10mph /  16.1km/h 71% 0.00in /  0mm 434 W/m2
14:04 73.9 °F /  23.3 °C 63.7 °F /  17.6 °C 30.16in /  1021.2hPa WSW 2.7mph /  4.3km/h 9mph /  14.5km/h 70.8% 0.00in /  0mm 425 W/m2
14:09 74.4 °F /  23.6 °C 64 °F /  17.8 °C 30.16in /  1021.2hPa West 5.2mph /  8.4km/h 9mph /  14.5km/h 70% 0.00in /  0mm 352 W/m2
14:14 74.3 °F /  23.5 °C 63.9 °F /  17.7 °C 30.16in /  1021.2hPa WNW 5.5mph /  8.9km/h 10mph /  16.1km/h 70% 0.00in /  0mm 469 W/m2
14:19 74.5 °F /  23.6 °C 64 °F /  17.8 °C 30.16in /  1021.2hPa West 4.4mph /  7.1km/h 10mph /  16.1km/h 70% 0.00in /  0mm 445 W/m2
14:24 74.6 °F /  23.7 °C 63.9 °F /  17.7 °C 30.16in /  1021.2hPa WSW 2.6mph /  4.2km/h 9mph /  14.5km/h 69.2% 0.00in /  0mm 380 W/m2
14:29 74.7 °F /  23.7 °C 63.9 °F /  17.7 °C 30.16in /  1021.2hPa WSW 6.7mph /  10.8km/h 13mph /  20.9km/h 69.2% 0.00in /  0mm 378 W/m2
14:34 74.4 °F /  23.6 °C 63.8 °F /  17.7 °C 30.16in /  1021.2hPa WSW 3.6mph /  5.8km/h 8mph /  12.9km/h 69.5% 0.00in /  0mm 378 W/m2
14:39 74.5 °F /  23.6 °C 63.6 °F /  17.6 °C 30.16in /  1021.2hPa WSW 6.3mph /  10.1km/h 13mph /  20.9km/h 68.9% 0.00in /  0mm 390 W/m2
14:44 74.5 °F /  23.6 °C 63.7 °F /  17.6 °C 30.16in /  1021.2hPa WSW 6.9mph /  11.1km/h 10mph /  16.1km/h 69% 0.00in /  0mm 418 W/m2
14:49 74.4 °F /  23.6 °C 63.8 °F /  17.7 °C 30.16in /  1021.2hPa SW 4.6mph /  7.4km/h 11mph /  17.7km/h 69.4% 0.00in /  0mm 459 W/m2
14:54 74.8 °F /  23.8 °C 64.3 °F /  17.9 °C 30.16in /  1021.2hPa WSW 5.3mph /  8.5km/h 10mph /  16.1km/h 69.7% 0.00in /  0mm 459 W/m2
14:59 74.8 °F /  23.8 °C 64.1 °F /  17.8 °C 30.16in /  1021.2hPa WSW 4.5mph /  7.2km/h 9mph /  14.5km/h 69.2% 0.00in /  0mm 396 W/m2
15:04 74.8 °F /  23.8 °C 64.2 °F /  17.9 °C 30.16in /  1021.2hPa WSW 4.6mph /  7.4km/h 9mph /  14.5km/h 69.7% 0.00in /  0mm 257 W/m2
15:09 74.4 °F /  23.6 °C 63.9 °F /  17.7 °C 30.16in /  1021.2hPa WSW 6.6mph /  10.6km/h 11mph /  17.7km/h 69.9% 0.00in /  0mm 262 W/m2
15:14 74.1 °F /  23.4 °C 64.3 °F /  17.9 °C 30.16in /  1021.2hPa WSW 5.5mph /  8.9km/h 10mph /  16.1km/h 71.4% 0.00in /  0mm 323 W/m2
15:19 74.1 °F /  23.4 °C 64.7 °F /  18.2 °C 30.16in /  1021.2hPa SW 5.4mph /  8.7km/h 11mph /  17.7km/h 72.3% 0.00in /  0mm 489 W/m2
15:24 74.7 °F /  23.7 °C 65.1 °F /  18.4 °C 30.16in /  1021.2hPa SW 6mph /  9.7km/h 11mph /  17.7km/h 72.2% 0.00in /  0mm 504 W/m2
15:29 74.7 °F /  23.7 °C 64.7 °F /  18.2 °C 30.16in /  1021.2hPa WSW 6.1mph /  9.8km/h 11mph /  17.7km/h 71% 0.00in /  0mm 612 W/m2
15:34 75 °F /  23.9 °C 64.5 °F /  18.1 °C 30.16in /  1021.2hPa SW 6.2mph /  10km/h 11mph /  17.7km/h 69.7% 0.00in /  0mm 918 W/m2
15:39 75.2 °F /  24 °C 64.5 °F /  18.1 °C 30.16in /  1021.2hPa SW 5.5mph /  8.9km/h 11mph /  17.7km/h 69.2% 0.00in /  0mm 900 W/m2
15:44 75.2 °F /  24 °C 64.7 °F /  18.2 °C 30.16in /  1021.2hPa SW 5.7mph /  9.2km/h 13mph /  20.9km/h 69.7% 0.00in /  0mm 482 W/m2
15:49 74.9 °F /  23.8 °C 64.6 °F /  18.1 °C 30.16in /  1021.2hPa WSW 4.7mph /  7.6km/h 13mph /  20.9km/h 70.2% 0.00in /  0mm 329 W/m2
15:54 75.2 °F /  24 °C 65 °F /  18.3 °C 30.16in /  1021.2hPa WSW 5.7mph /  9.2km/h 12mph /  19.3km/h 70.4% 0.00in /  0mm 469 W/m2
15:59 74.8 °F /  23.8 °C 64.4 °F /  18 °C 30.16in /  1021.2hPa SW 8.2mph /  13.2km/h 13mph /  20.9km/h 70.2% 0.00in /  0mm 469 W/m2
16:04 74 °F /  23.3 °C 64.1 °F /  17.8 °C 30.16in /  1021.2hPa WSW 8mph /  12.9km/h 13mph /  20.9km/h 71.2% 0.00in /  0mm 380 W/m2
16:09 73.9 °F /  23.3 °C 64.2 °F /  17.9 °C 30.16in /  1021.2hPa WSW 7.6mph /  12.2km/h 13mph /  20.9km/h 71.7% 0.00in /  0mm 394 W/m2
16:14 74.4 °F /  23.6 °C 64.7 °F /  18.2 °C 30.15in /  1020.9hPa SW 6.6mph /  10.6km/h 13mph /  20.9km/h 71.5% 0.00in /  0mm 504 W/m2
16:19 74.3 °F /  23.5 °C 64.2 °F /  17.9 °C 30.15in /  1020.9hPa WSW 6.7mph /  10.8km/h 13mph /  20.9km/h 71% 0.00in /  0mm 322 W/m2
16:24 74.5 °F /  23.6 °C 64.4 °F /  18 °C 30.15in /  1020.9hPa SW 6.1mph /  9.8km/h 12mph /  19.3km/h 70.9% 0.00in /  0mm 810 W/m2
16:29 74.8 °F /  23.8 °C 64.1 °F /  17.8 °C 30.15in /  1020.9hPa SW 6.3mph /  10.1km/h 12mph /  19.3km/h 69.3% 0.00in /  0mm 810 W/m2
16:34 74.9 °F /  23.8 °C 64.5 °F /  18.1 °C 30.15in /  1020.9hPa SW 4.1mph /  6.6km/h 8mph /  12.9km/h 70% 0.00in /  0mm 329 W/m2
16:39 75 °F /  23.9 °C 64.3 °F /  17.9 °C 30.15in /  1020.9hPa SW 5.6mph /  9km/h 11mph /  17.7km/h 69.3% 0.00in /  0mm 826 W/m2
16:44 75.8 °F /  24.3 °C 64.9 °F /  18.3 °C 30.15in /  1020.9hPa West 6.5mph /  10.5km/h 13mph /  20.9km/h 69% 0.00in /  0mm 826 W/m2
16:49 75.4 °F /  24.1 °C 64.4 °F /  18 °C 30.15in /  1020.9hPa WSW 5.9mph /  9.5km/h 13mph /  20.9km/h 68.7% 0.00in /  0mm 348 W/m2
16:54 75.2 °F /  24 °C 64.5 °F /  18.1 °C 30.15in /  1020.9hPa WSW 5.4mph /  8.7km/h 13mph /  20.9km/h 69.4% 0.00in /  0mm 429 W/m2
16:59 75 °F /  23.9 °C 64.1 °F /  17.8 °C 30.15in /  1020.9hPa WSW 6.6mph /  10.6km/h 13mph /  20.9km/h 68.8% 0.00in /  0mm 288 W/m2
17:04 74.9 °F /  23.8 °C 64.1 °F /  17.8 °C 30.15in /  1020.9hPa West 4.8mph /  7.7km/h 10mph /  16.1km/h 69% 0.00in /  0mm 236 W/m2
17:09 74.8 °F /  23.8 °C 64.2 °F /  17.9 °C 30.15in /  1020.9hPa West 5.5mph /  8.9km/h 12mph /  19.3km/h 69.5% 0.00in /  0mm 132 W/m2
17:14 74.3 °F /  23.5 °C 64.2 °F /  17.9 °C 30.15in /  1020.9hPa West 7.1mph /  11.4km/h 13mph /  20.9km/h 70.9% 0.00in /  0mm 81 W/m2
17:19 73.7 °F /  23.2 °C 64.3 °F /  17.9 °C 30.15in /  1020.9hPa WSW 6.9mph /  11.1km/h 11mph /  17.7km/h 72.3% 0.00in /  0mm 100 W/m2
17:24 73.3 °F /  22.9 °C 64 °F /  17.8 °C 30.15in /  1020.9hPa West 6.9mph /  11.1km/h 13mph /  20.9km/h 72.8% 0.00in /  0mm 104 W/m2
17:29 73.2 °F /  22.9 °C 64 °F /  17.8 °C 30.15in /  1020.9hPa WSW 5.2mph /  8.4km/h 12mph /  19.3km/h 73% 0.00in /  0mm 105 W/m2
17:34 73.1 °F /  22.8 °C 64 °F /  17.8 °C 30.15in /  1020.9hPa SW 5mph /  8km/h 12mph /  19.3km/h 73% 0.00in /  0mm 123 W/m2
17:39 73 °F /  22.8 °C 64.2 °F /  17.9 °C 30.15in /  1020.9hPa SW 4.4mph /  7.1km/h 12mph /  19.3km/h 73.9% 0.00in /  0mm 156 W/m2
17:44 72.9 °F /  22.7 °C 64.1 °F /  17.8 °C 30.15in /  1020.9hPa SW 7.2mph /  11.6km/h 12mph /  19.3km/h 74% 0.00in /  0mm 163 W/m2
17:49 72.9 °F /  22.7 °C 64 °F /  17.8 °C 30.15in /  1020.9hPa SW 5.4mph /  8.7km/h 11mph /  17.7km/h 74% 0.00in /  0mm 149 W/m2
17:54 72.9 °F /  22.7 °C 64 °F /  17.8 °C 30.15in /  1020.9hPa WSW 4.4mph /  7.1km/h 9mph /  14.5km/h 74% 0.00in /  0mm 123 W/m2
17:59 73 °F /  22.8 °C 64.1 °F /  17.8 °C 30.15in /  1020.9hPa WSW 4.7mph /  7.6km/h 9mph /  14.5km/h 74% 0.00in /  0mm 107 W/m2
18:04 72.8 °F /  22.7 °C 63.9 °F /  17.7 °C 30.15in /  1020.9hPa SW 5.5mph /  8.9km/h 10mph /  16.1km/h 74% 0.00in /  0mm 86 W/m2
18:09 72.5 °F /  22.5 °C 63.7 °F /  17.6 °C 30.15in /  1020.9hPa WSW 4.4mph /  7.1km/h 10mph /  16.1km/h 74% 0.00in /  0mm 72 W/m2
18:14 72.5 °F /  22.5 °C 63.7 °F /  17.6 °C 30.15in /  1020.9hPa WSW 3.7mph /  6km/h 10mph /  16.1km/h 74% 0.00in /  0mm 67 W/m2
18:19 72.5 °F /  22.5 °C 63.7 °F /  17.6 °C 30.15in /  1020.9hPa WSW 4.2mph /  6.8km/h 8mph /  12.9km/h 74% 0.00in /  0mm 69 W/m2
18:24 72.3 °F /  22.4 °C 63.5 °F /  17.5 °C 30.15in /  1020.9hPa West 3.9mph /  6.3km/h 8mph /  12.9km/h 74% 0.00in /  0mm 69 W/m2
18:29 72.3 °F /  22.4 °C 63.8 °F /  17.7 °C 30.15in /  1020.9hPa West 3.7mph /  6km/h 9mph /  14.5km/h 74.8% 0.00in /  0mm 62 W/m2
18:34 72.2 °F /  22.3 °C 63.9 °F /  17.7 °C 30.15in /  1020.9hPa West 3.2mph /  5.1km/h 7mph /  11.3km/h 75% 0.00in /  0mm 56 W/m2
18:39 72.1 °F /  22.3 °C 63.9 °F /  17.7 °C 30.15in /  1020.9hPa West 3.5mph /  5.6km/h 7mph /  11.3km/h 75% 0.00in /  0mm 49 W/m2
18:44 72 °F /  22.2 °C 63.9 °F /  17.7 °C 30.15in /  1020.9hPa WSW 3.4mph /  5.5km/h 7mph /  11.3km/h 75.6% 0.00in /  0mm 56 W/m2
18:49 72 °F /  22.2 °C 64 °F /  17.8 °C 30.15in /  1020.9hPa West 2.2mph /  3.5km/h 7mph /  11.3km/h 76% 0.00in /  0mm 63 W/m2
18:54 72 °F /  22.2 °C 64 °F /  17.8 °C 30.15in /  1020.9hPa West 3.3mph /  5.3km/h 6mph /  9.7km/h 76% 0.00in /  0mm 70 W/m2
18:59 71.9 °F /  22.2 °C 64.2 °F /  17.9 °C 30.15in /  1020.9hPa West 3.3mph /  5.3km/h 7mph /  11.3km/h 76.5% 0.00in /  0mm 81 W/m2
19:04 71.8 °F /  22.1 °C 64.2 °F /  17.9 °C 30.14in /  1020.5hPa West 2.2mph /  3.5km/h 6mph /  9.7km/h 77% 0.00in /  0mm 83 W/m2
19:09 72 °F /  22.2 °C 64.4 °F /  18 °C 30.15in /  1020.9hPa West 1.3mph /  2.1km/h 5mph /  8km/h 77% 0.00in /  0mm 83 W/m2
19:14 72 °F /  22.2 °C 64.4 °F /  18 °C 30.14in /  1020.5hPa West 1.7mph /  2.7km/h 5mph /  8km/h 77% 0.00in /  0mm 86 W/m2
19:19 71.7 °F /  22.1 °C 64.1 °F /  17.8 °C 30.14in /  1020.5hPa West 1.9mph /  3.1km/h 4mph /  6.4km/h 77% 0.00in /  0mm 88 W/m2
19:24 71.6 °F /  22 °C 64 °F /  17.8 °C 30.14in /  1020.5hPa West 2.4mph /  3.9km/h 5mph /  8km/h 77% 0.00in /  0mm 88 W/m2
19:29 71.6 °F /  22 °C 64 °F /  17.8 °C 30.15in /  1020.9hPa West 1.8mph /  2.9km/h 5mph /  8km/h 77% 0.00in /  0mm 81 W/m2
19:34 71.6 °F /  22 °C 64.4 °F /  18 °C 30.15in /  1020.9hPa West 1.7mph /  2.7km/h 4mph /  6.4km/h 78% 0.00in /  0mm 76 W/m2
19:39 71.6 °F /  22 °C 64.4 °F /  18 °C 30.15in /  1020.9hPa West 1.6mph /  2.6km/h 5mph /  8km/h 78% 0.00in /  0mm 70 W/m2
19:44 71.5 °F /  21.9 °C 64.3 °F /  17.9 °C 30.14in /  1020.5hPa West 3.1mph /  5km/h 5mph /  8km/h 78% 0.00in /  0mm 62 W/m2
19:49 71.4 °F /  21.9 °C 64.2 °F /  17.9 °C 30.14in /  1020.5hPa West 1.9mph /  3.1km/h 5mph /  8km/h 78% 0.00in /  0mm 54 W/m2
19:54 71.4 °F /  21.9 °C 64.2 °F /  17.9 °C 30.14in /  1020.5hPa WSW 2.2mph /  3.5km/h 6mph /  9.7km/h 78% 0.00in /  0mm 46 W/m2
19:59 71.4 °F /  21.9 °C 64.2 °F /  17.9 °C 30.14in /  1020.5hPa WSW 2.3mph /  3.7km/h 6mph /  9.7km/h 78% 0.00in /  0mm 37 W/m2
20:04 71.4 °F /  21.9 °C 64.6 °F /  18.1 °C 30.14in /  1020.5hPa WSW 0.9mph /  1.4km/h 5mph /  8km/h 79% 0.00in /  0mm 35 W/m2
20:09 71.4 °F /  21.9 °C 64.6 °F /  18.1 °C 30.14in /  1020.5hPa WSW 4.2mph /  6.8km/h 8mph /  12.9km/h 79% 0.00in /  0mm 32 W/m2
20:14 71.2 °F /  21.8 °C 64.4 °F /  18 °C 30.14in /  1020.5hPa WSW 3.9mph /  6.3km/h 8mph /  12.9km/h 79% 0.00in /  0mm 28 W/m2
20:19 71.1 °F /  21.7 °C 64.2 °F /  17.9 °C 30.14in /  1020.5hPa WSW 3.6mph /  5.8km/h 8mph /  12.9km/h 79% 0.00in /  0mm 25 W/m2
20:24 71 °F /  21.7 °C 64.1 °F /  17.8 °C 30.14in /  1020.5hPa WSW 3mph /  4.8km/h 6mph /  9.7km/h 79% 0.00in /  0mm 19 W/m2
20:29 70.7 °F /  21.5 °C 63.8 °F /  17.7 °C 30.14in /  1020.5hPa West 3.4mph /  5.5km/h 7mph /  11.3km/h 79% 0.00in /  0mm 21 W/m2
20:34 70.4 °F /  21.3 °C 63.5 °F /  17.5 °C 30.14in /  1020.5hPa West 2.7mph /  4.3km/h 7mph /  11.3km/h 78.8% 0.00in /  0mm 19 W/m2
20:39 70.2 °F /  21.2 °C 63.2 °F /  17.3 °C 30.15in /  1020.9hPa West 3.5mph /  5.6km/h 6mph /  9.7km/h 78.5% 0.00in /  0mm 16 W/m2
20:44 70.2 °F /  21.2 °C 63 °F /  17.2 °C 30.14in /  1020.5hPa West 1.9mph /  3.1km/h 5mph /  8km/h 78% 0.00in /  0mm 12 W/m2
20:49 70.2 °F /  21.2 °C 63 °F /  17.2 °C 30.14in /  1020.5hPa West 1.1mph /  1.8km/h 5mph /  8km/h 78% 0.00in /  0mm 11 W/m2
20:54 70 °F /  21.1 °C 62.8 °F /  17.1 °C 30.14in /  1020.5hPa West 1mph /  1.6km/h 5mph /  8km/h 78% 0.00in /  0mm 11 W/m2
20:59 69.9 °F /  21.1 °C 62.7 °F /  17.1 °C 30.14in /  1020.5hPa West 1.2mph /  1.9km/h 4mph /  6.4km/h 78% 0.00in /  0mm 9 W/m2
21:04 69.8 °F /  21 °C 62.8 °F /  17.1 °C 30.14in /  1020.5hPa West 1mph /  1.6km/h 4mph /  6.4km/h 78.5% 0.00in /  0mm 7 W/m2
21:09 69.7 °F /  20.9 °C 62.5 °F /  16.9 °C 30.15in /  1020.9hPa West 3mph /  4.8km/h 5mph /  8km/h 78% 0.00in /  0mm 5 W/m2
21:14 69.6 °F /  20.9 °C 62.5 °F /  16.9 °C 30.15in /  1020.9hPa West 1.3mph /  2.1km/h 4mph /  6.4km/h 78.3% 0.00in /  0mm 0 W/m2
21:19 69.5 °F /  20.8 °C 62.7 °F /  17.1 °C 30.15in /  1020.9hPa West 1.4mph /  2.3km/h 4mph /  6.4km/h 79% 0.00in /  0mm 0 W/m2
21:24 69.4 °F /  20.8 °C 62.6 °F /  17 °C 30.15in /  1020.9hPa Calm   3mph /  4.8km/h 79% 0.00in /  0mm 0 W/m2
21:29 69.5 °F /  20.8 °C 62.7 °F /  17.1 °C 30.15in /  1020.9hPa West 0.2mph /  0.3km/h 2mph /  3.2km/h 79% 0.00in /  0mm 0 W/m2
21:34 69.6 °F /  20.9 °C 62.8 °F /  17.1 °C 30.15in /  1020.9hPa West 0.6mph /  1km/h 3mph /  4.8km/h 79% 0.00in /  0mm 0 W/m2
21:39 69.6 °F /  20.9 °C 62.8 °F /  17.1 °C 30.15in /  1020.9hPa West 1.1mph /  1.8km/h 3mph /  4.8km/h 79% 0.00in /  0mm 0 W/m2
21:44 69.5 °F /  20.8 °C 62.7 °F /  17.1 °C 30.15in /  1020.9hPa West 0.2mph /  0.3km/h 3mph /  4.8km/h 79% 0.00in /  0mm 0 W/m2
21:49 69.5 °F /  20.8 °C 62.7 °F /  17.1 °C 30.15in /  1020.9hPa West 1mph /  1.6km/h 3mph /  4.8km/h 79% 0.00in /  0mm 0 W/m2
21:54 69.4 °F /  20.8 °C 62.6 °F /  17 °C 30.15in /  1020.9hPa West 1.1mph /  1.8km/h 4mph /  6.4km/h 79% 0.00in /  0mm 0 W/m2
21:59 69.4 °F /  20.8 °C 62.5 °F /  16.9 °C 30.15in /  1020.9hPa West 0.7mph /  1.1km/h 4mph /  6.4km/h 79% 0.00in /  0mm 0 W/m2
22:04 69.3 °F /  20.7 °C 62.4 °F /  16.9 °C 30.15in /  1020.9hPa West 1.1mph /  1.8km/h 4mph /  6.4km/h 79% 0.00in /  0mm 0 W/m2
22:09 69.2 °F /  20.7 °C 62.3 °F /  16.8 °C 30.15in /  1020.9hPa West 0.2mph /  0.3km/h 2mph /  3.2km/h 79% 0.00in /  0mm 0 W/m2
22:14 69.1 °F /  20.6 °C 62.2 °F /  16.8 °C 30.15in /  1020.9hPa Calm     79% 0.00in /  0mm 0 W/m2
22:19 69 °F /  20.6 °C 62.2 °F /  16.8 °C 30.15in /  1020.9hPa Calm     79% 0.00in /  0mm 0 W/m2
22:24 68.9 °F /  20.5 °C 62.1 °F /  16.7 °C 30.15in /  1020.9hPa Calm     79% 0.00in /  0mm 0 W/m2
22:29 68.7 °F /  20.4 °C 61.9 °F /  16.6 °C 30.15in /  1020.9hPa Calm     79% 0.00in /  0mm 0 W/m2
22:34 68.7 °F /  20.4 °C 61.9 °F /  16.6 °C 30.15in /  1020.9hPa West 0.3mph /  0.5km/h 2mph /  3.2km/h 79% 0.00in /  0mm 0 W/m2
22:39 68.5 °F /  20.3 °C 61.8 °F /  16.6 °C 30.15in /  1020.9hPa West 0.3mph /  0.5km/h 1mph /  1.6km/h 79.5% 0.00in /  0mm 0 W/m2
22:44 68.4 °F /  20.2 °C 61.9 °F /  16.6 °C 30.15in /  1020.9hPa West 0.4mph /  0.6km/h 2mph /  3.2km/h 80% 0.00in /  0mm 0 W/m2
22:49 68.4 °F /  20.2 °C 61.9 °F /  16.6 °C 30.15in /  1020.9hPa Calm   2mph /  3.2km/h 80% 0.00in /  0mm 0 W/m2
22:54 68.2 °F /  20.1 °C 61.7 °F /  16.5 °C 30.15in /  1020.9hPa Calm     80% 0.00in /  0mm 0 W/m2
22:59 68.1 °F /  20.1 °C 61.6 °F /  16.4 °C 30.15in /  1020.9hPa Calm     80% 0.00in /  0mm 0 W/m2
23:04 68 °F /  20 °C 61.5 °F /  16.4 °C 30.15in /  1020.9hPa Calm     80% 0.00in /  0mm 0 W/m2
23:09 67.9 °F /  19.9 °C 61.8 °F /  16.6 °C 30.15in /  1020.9hPa Calm     81% 0.00in /  0mm 0 W/m2
23:14 67.6 °F /  19.8 °C 61.5 °F /  16.4 °C 30.15in /  1020.9hPa Calm   1mph /  1.6km/h 81% 0.00in /  0mm 0 W/m2
23:19 67.3 °F /  19.6 °C 61.2 °F /  16.2 °C 30.15in /  1020.9hPa Calm     81% 0.00in /  0mm 0 W/m2
23:24 67.1 °F /  19.5 °C 61.3 °F /  16.3 °C 30.15in /  1020.9hPa Calm     82% 0.00in /  0mm 0 W/m2
23:29 66.8 °F /  19.3 °C 61.1 °F /  16.2 °C 30.15in /  1020.9hPa Calm     82% 0.00in /  0mm 0 W/m2
23:34 66.6 °F /  19.2 °C 61.1 °F /  16.2 °C 30.15in /  1020.9hPa Calm     82.7% 0.00in /  0mm 0 W/m2
23:39 66.3 °F /  19.1 °C 60.9 °F /  16.1 °C 30.15in /  1020.9hPa Calm     83.1% 0.00in /  0mm 0 W/m2
23:44 65.9 °F /  18.8 °C 60.9 °F /  16.1 °C 30.15in /  1020.9hPa West 1.2mph /  1.9km/h 3mph /  4.8km/h 84% 0.00in /  0mm 0 W/m2
23:49 65.6 °F /  18.7 °C 60.7 °F /  15.9 °C 30.15in /  1020.9hPa West 1.8mph /  2.9km/h 4mph /  6.4km/h 84.4% 0.00in /  0mm 0 W/m2
23:54 65.1 °F /  18.4 °C 60.4 °F /  15.8 °C 30.15in /  1020.9hPa West 1.6mph /  2.6km/h 4mph /  6.4km/h 85% 0.00in /  0mm 0 W/m2
23:59 64.8 °F /  18.2 °C 60.4 °F /  15.8 °C 30.15in /  1020.9hPa West 1.4mph /  2.3km/h 4mph /  6.4km/h 85.7% 0.00in /  0mm 0 W/m2
Bath Spa Weather
Compliments of Weather Underground - 2 mb